sensor_id;sensor_type;location;lat;lon;timestamp;P1;durP1;ratioP1;P2;durP2;ratioP2
39308;SDS011;26019;47.510;19.122;2024-01-06T00:10:06;38.07;;;21.87;;
39308;SDS011;26019;47.510;19.122;2024-01-06T00:20:08;39.53;;;21.27;;
39308;SDS011;26019;47.510;19.122;2024-01-06T00:30:12;42.45;;;20.92;;
39308;SDS011;26019;47.510;19.122;2024-01-06T00:40:14;35.88;;;21.55;;
39308;SDS011;26019;47.510;19.122;2024-01-06T00:50:17;35.33;;;20.33;;
39308;SDS011;26019;47.510;19.122;2024-01-06T01:00:21;40.88;;;22.33;;
39308;SDS011;26019;47.510;19.122;2024-01-06T01:20:26;31.40;;;19.00;;
39308;SDS011;26019;47.510;19.122;2024-01-06T01:30:28;39.10;;;21.00;;
39308;SDS011;26019;47.510;19.122;2024-01-06T01:40:30;34.70;;;19.50;;
39308;SDS011;26019;47.510;19.122;2024-01-06T01:50:34;33.58;;;19.13;;
39308;SDS011;26019;47.510;19.122;2024-01-06T02:00:36;35.90;;;19.85;;
39308;SDS011;26019;47.510;19.122;2024-01-06T02:10:40;37.80;;;20.17;;
39308;SDS011;26019;47.510;19.122;2024-01-06T02:20:43;29.83;;;18.25;;
39308;SDS011;26019;47.510;19.122;2024-01-06T02:30:46;32.07;;;19.27;;
39308;SDS011;26019;47.510;19.122;2024-01-06T02:40:50;31.77;;;19.40;;
39308;SDS011;26019;47.510;19.122;2024-01-06T02:50:51;32.92;;;18.02;;
39308;SDS011;26019;47.510;19.122;2024-01-06T03:00:53;35.55;;;20.90;;
39308;SDS011;26019;47.510;19.122;2024-01-06T03:10:56;32.58;;;20.25;;
39308;SDS011;26019;47.510;19.122;2024-01-06T03:20:58;35.97;;;18.43;;
39308;SDS011;26019;47.510;19.122;2024-01-06T03:31:00;34.63;;;19.80;;
39308;SDS011;26019;47.510;19.122;2024-01-06T03:41:02;32.97;;;18.77;;
39308;SDS011;26019;47.510;19.122;2024-01-06T03:51:04;32.13;;;18.42;;
39308;SDS011;26019;47.510;19.122;2024-01-06T04:01:06;29.52;;;17.80;;
39308;SDS011;26019;47.510;19.122;2024-01-06T04:11:12;30.15;;;18.60;;
39308;SDS011;26019;47.510;19.122;2024-01-06T04:21:15;32.30;;;17.35;;
39308;SDS011;26019;47.510;19.122;2024-01-06T04:31:19;30.02;;;17.52;;
39308;SDS011;26019;47.510;19.122;2024-01-06T04:41:20;35.08;;;17.40;;
39308;SDS011;26019;47.510;19.122;2024-01-06T04:51:25;27.77;;;17.65;;
39308;SDS011;26019;47.510;19.122;2024-01-06T05:01:27;29.70;;;17.33;;
39308;SDS011;26019;47.510;19.122;2024-01-06T05:11:31;32.78;;;17.73;;
39308;SDS011;26019;47.510;19.122;2024-01-06T05:21:34;31.53;;;19.30;;
39308;SDS011;26019;47.510;19.122;2024-01-06T05:31:36;29.45;;;17.17;;
39308;SDS011;26019;47.510;19.122;2024-01-06T05:41:39;29.35;;;17.15;;
39308;SDS011;26019;47.510;19.122;2024-01-06T05:51:45;26.17;;;17.03;;
39308;SDS011;26019;47.510;19.122;2024-01-06T06:01:48;25.70;;;15.85;;
39308;SDS011;26019;47.510;19.122;2024-01-06T06:11:51;27.33;;;16.00;;
39308;SDS011;26019;47.510;19.122;2024-01-06T06:21:53;27.13;;;16.13;;
39308;SDS011;26019;47.510;19.122;2024-01-06T06:31:55;26.80;;;16.43;;
39308;SDS011;26019;47.510;19.122;2024-01-06T06:41:57;27.77;;;16.05;;
39308;SDS011;26019;47.510;19.122;2024-01-06T06:52:07;25.37;;;15.10;;
39308;SDS011;26019;47.510;19.122;2024-01-06T07:02:08;29.83;;;15.82;;
39308;SDS011;26019;47.510;19.122;2024-01-06T07:12:10;24.10;;;13.85;;
39308;SDS011;26019;47.510;19.122;2024-01-06T07:22:13;23.83;;;13.88;;
39308;SDS011;26019;47.510;19.122;2024-01-06T07:32:15;24.37;;;13.63;;
39308;SDS011;26019;47.510;19.122;2024-01-06T07:42:18;23.77;;;13.88;;
39308;SDS011;26019;47.510;19.122;2024-01-06T07:52:20;20.40;;;12.03;;
39308;SDS011;26019;47.510;19.122;2024-01-06T08:02:22;23.27;;;12.23;;
39308;SDS011;26019;47.510;19.122;2024-01-06T08:12:24;21.13;;;12.88;;
39308;SDS011;26019;47.510;19.122;2024-01-06T08:22:25;20.75;;;11.43;;
39308;SDS011;26019;47.510;19.122;2024-01-06T08:32:27;16.20;;;11.30;;
39308;SDS011;26019;47.510;19.122;2024-01-06T08:42:29;17.30;;;10.27;;
39308;SDS011;26019;47.510;19.122;2024-01-06T08:52:31;17.50;;;10.73;;
39308;SDS011;26019;47.510;19.122;2024-01-06T09:02:33;20.90;;;11.53;;
39308;SDS011;26019;47.510;19.122;2024-01-06T09:12:35;20.73;;;12.88;;
39308;SDS011;26019;47.510;19.122;2024-01-06T09:22:37;20.33;;;10.63;;
39308;SDS011;26019;47.510;19.122;2024-01-06T09:32:38;18.67;;;11.45;;
39308;SDS011;26019;47.510;19.122;2024-01-06T09:42:41;19.23;;;11.00;;
39308;SDS011;26019;47.510;19.122;2024-01-06T09:52:43;14.10;;;9.52;;
39308;SDS011;26019;47.510;19.122;2024-01-06T10:02:50;15.43;;;10.38;;
39308;SDS011;26019;47.510;19.122;2024-01-06T10:12:54;19.55;;;10.32;;
39308;SDS011;26019;47.510;19.122;2024-01-06T10:22:56;15.93;;;10.23;;
39308;SDS011;26019;47.510;19.122;2024-01-06T10:33:10;20.42;;;11.95;;
39308;SDS011;26019;47.510;19.122;2024-01-06T10:43:12;17.08;;;10.75;;
39308;SDS011;26019;47.510;19.122;2024-01-06T10:53:15;20.33;;;12.38;;
39308;SDS011;26019;47.510;19.122;2024-01-06T11:03:18;19.42;;;12.57;;
39308;SDS011;26019;47.510;19.122;2024-01-06T11:13:22;20.70;;;12.20;;
39308;SDS011;26019;47.510;19.122;2024-01-06T11:23:26;19.55;;;12.02;;
39308;SDS011;26019;47.510;19.122;2024-01-06T11:33:29;22.23;;;11.77;;
39308;SDS011;26019;47.510;19.122;2024-01-06T11:43:32;18.73;;;11.63;;
39308;SDS011;26019;47.510;19.122;2024-01-06T11:53:39;25.73;;;14.77;;
39308;SDS011;26019;47.510;19.122;2024-01-06T12:03:42;17.40;;;11.57;;
39308;SDS011;26019;47.510;19.122;2024-01-06T12:13:44;23.58;;;12.98;;
39308;SDS011;26019;47.510;19.122;2024-01-06T12:23:46;22.00;;;11.80;;
39308;SDS011;26019;47.510;19.122;2024-01-06T12:33:48;20.83;;;12.63;;
39308;SDS011;26019;47.510;19.122;2024-01-06T12:43:49;21.15;;;12.00;;
39308;SDS011;26019;47.510;19.122;2024-01-06T12:53:51;20.48;;;13.05;;
39308;SDS011;26019;47.510;19.122;2024-01-06T13:03:59;16.17;;;10.80;;
39308;SDS011;26019;47.510;19.122;2024-01-06T13:14:04;17.00;;;11.10;;
39308;SDS011;26019;47.510;19.122;2024-01-06T13:24:06;16.87;;;10.30;;
39308;SDS011;26019;47.510;19.122;2024-01-06T13:34:14;24.37;;;15.27;;
39308;SDS011;26019;47.510;19.122;2024-01-06T13:44:18;22.92;;;14.80;;
39308;SDS011;26019;47.510;19.122;2024-01-06T13:54:20;20.05;;;13.68;;
39308;SDS011;26019;47.510;19.122;2024-01-06T14:04:22;21.85;;;13.82;;
39308;SDS011;26019;47.510;19.122;2024-01-06T14:14:25;21.13;;;14.13;;
39308;SDS011;26019;47.510;19.122;2024-01-06T14:24:28;26.60;;;14.60;;
39308;SDS011;26019;47.510;19.122;2024-01-06T14:34:31;25.48;;;15.38;;
39308;SDS011;26019;47.510;19.122;2024-01-06T14:44:33;24.13;;;14.65;;
39308;SDS011;26019;47.510;19.122;2024-01-06T14:54:36;21.10;;;14.15;;
39308;SDS011;26019;47.510;19.122;2024-01-06T15:04:40;26.35;;;16.20;;
39308;SDS011;26019;47.510;19.122;2024-01-06T15:14:44;26.20;;;16.40;;
39308;SDS011;26019;47.510;19.122;2024-01-06T15:24:46;27.77;;;16.70;;
39308;SDS011;26019;47.510;19.122;2024-01-06T15:34:58;28.83;;;17.20;;
39308;SDS011;26019;47.510;19.122;2024-01-06T15:45:01;24.58;;;16.15;;
39308;SDS011;26019;47.510;19.122;2024-01-06T15:55:03;27.90;;;17.13;;
39308;SDS011;26019;47.510;19.122;2024-01-06T16:05:19;29.40;;;17.38;;
39308;SDS011;26019;47.510;19.122;2024-01-06T16:15:21;29.85;;;18.83;;
39308;SDS011;26019;47.510;19.122;2024-01-06T16:25:23;24.92;;;16.02;;
39308;SDS011;26019;47.510;19.122;2024-01-06T16:35:25;23.33;;;13.38;;
39308;SDS011;26019;47.510;19.122;2024-01-06T16:45:28;19.40;;;13.13;;
39308;SDS011;26019;47.510;19.122;2024-01-06T16:55:29;31.20;;;16.40;;
39308;SDS011;26019;47.510;19.122;2024-01-06T17:05:31;28.67;;;18.55;;
39308;SDS011;26019;47.510;19.122;2024-01-06T17:15:34;26.98;;;17.70;;
39308;SDS011;26019;47.510;19.122;2024-01-06T17:25:36;28.93;;;17.70;;
39308;SDS011;26019;47.510;19.122;2024-01-06T17:35:37;27.77;;;17.02;;
39308;SDS011;26019;47.510;19.122;2024-01-06T17:45:39;25.00;;;14.57;;
39308;SDS011;26019;47.510;19.122;2024-01-06T17:55:41;21.35;;;13.98;;
39308;SDS011;26019;47.510;19.122;2024-01-06T18:05:52;24.63;;;13.95;;
39308;SDS011;26019;47.510;19.122;2024-01-06T18:15:54;23.55;;;15.93;;
39308;SDS011;26019;47.510;19.122;2024-01-06T18:25:58;23.58;;;14.00;;
39308;SDS011;26019;47.510;19.122;2024-01-06T18:36:00;28.40;;;16.80;;
39308;SDS011;26019;47.510;19.122;2024-01-06T18:46:06;26.55;;;18.17;;
39308;SDS011;26019;47.510;19.122;2024-01-06T18:56:15;29.87;;;19.37;;
39308;SDS011;26019;47.510;19.122;2024-01-06T19:06:18;29.15;;;18.98;;
39308;SDS011;26019;47.510;19.122;2024-01-06T19:16:20;30.60;;;19.77;;
39308;SDS011;26019;47.510;19.122;2024-01-06T19:26:22;29.85;;;18.80;;
39308;SDS011;26019;47.510;19.122;2024-01-06T19:36:24;30.67;;;19.10;;
39308;SDS011;26019;47.510;19.122;2024-01-06T19:46:26;31.90;;;18.90;;
39308;SDS011;26019;47.510;19.122;2024-01-06T19:56:28;28.13;;;18.58;;
39308;SDS011;26019;47.510;19.122;2024-01-06T20:06:30;27.40;;;17.30;;
39308;SDS011;26019;47.510;19.122;2024-01-06T20:16:38;26.13;;;17.08;;
39308;SDS011;26019;47.510;19.122;2024-01-06T20:26:44;22.05;;;15.57;;
39308;SDS011;26019;47.510;19.122;2024-01-06T20:36:46;25.77;;;16.67;;
39308;SDS011;26019;47.510;19.122;2024-01-06T20:46:49;25.13;;;17.65;;
39308;SDS011;26019;47.510;19.122;2024-01-06T20:56:53;23.17;;;15.47;;
39308;SDS011;26019;47.510;19.122;2024-01-06T21:06:55;25.00;;;16.27;;
39308;SDS011;26019;47.510;19.122;2024-01-06T21:27:03;26.95;;;15.43;;
39308;SDS011;26019;47.510;19.122;2024-01-06T21:37:06;23.87;;;15.20;;
39308;SDS011;26019;47.510;19.122;2024-01-06T21:47:08;25.75;;;15.95;;
39308;SDS011;26019;47.510;19.122;2024-01-06T21:57:09;24.95;;;15.65;;
39308;SDS011;26019;47.510;19.122;2024-01-06T22:07:11;21.90;;;14.52;;
39308;SDS011;26019;47.510;19.122;2024-01-06T22:17:13;21.90;;;14.77;;
39308;SDS011;26019;47.510;19.122;2024-01-06T22:27:16;20.60;;;13.27;;
39308;SDS011;26019;47.510;19.122;2024-01-06T22:37:23;26.52;;;15.23;;
39308;SDS011;26019;47.510;19.122;2024-01-06T22:47:25;27.70;;;16.10;;
39308;SDS011;26019;47.510;19.122;2024-01-06T22:57:27;21.60;;;13.70;;
39308;SDS011;26019;47.510;19.122;2024-01-06T23:07:37;19.80;;;13.35;;
39308;SDS011;26019;47.510;19.122;2024-01-06T23:28:01;22.00;;;13.75;;
39308;SDS011;26019;47.510;19.122;2024-01-06T23:38:03;21.55;;;14.48;;
39308;SDS011;26019;47.510;19.122;2024-01-06T23:48:05;22.30;;;14.87;;
39308;SDS011;26019;47.510;19.122;2024-01-06T23:58:08;19.07;;;12.50;;
